createdAt,value
2024-02-04T00:01:08.669Z,3.90
2024-02-04T00:03:40.740Z,3.25
2024-02-04T00:06:14.679Z,3.25
2024-02-04T00:08:45.131Z,2.65
2024-02-04T00:11:16.535Z,2.65
2024-02-04T00:13:46.754Z,4.80
2024-02-04T00:16:20.711Z,3.25
2024-02-04T00:18:48.582Z,2.25
2024-02-04T00:21:17.527Z,2.53
2024-02-04T00:23:47.381Z,3.00
2024-02-04T00:26:16.608Z,3.15
2024-02-04T00:28:44.627Z,2.40
2024-02-04T00:31:14.449Z,2.60
2024-02-04T00:33:43.534Z,4.10
2024-02-04T00:36:11.157Z,1.98
2024-02-04T00:38:38.680Z,2.90
2024-02-04T00:41:31.555Z,1.92
2024-02-04T00:43:58.859Z,1.90
2024-02-04T00:46:29.388Z,3.42
2024-02-04T00:48:57.484Z,2.33
2024-02-04T00:51:29.180Z,3.17
2024-02-04T00:53:57.508Z,2.95
2024-02-04T00:56:59.387Z,2.22
2024-02-04T00:59:24.852Z,1.73
2024-02-04T01:01:57.532Z,2.63
2024-02-04T01:04:29.751Z,2.90
2024-02-04T01:09:35.991Z,2.75
2024-02-04T01:12:07.976Z,3.53
2024-02-04T01:14:39.050Z,2.85
2024-02-04T01:17:06.779Z,2.72
2024-02-04T01:19:38.090Z,2.60
2024-02-04T01:22:07.169Z,1.90
2024-02-04T01:24:39.287Z,2.00
2024-02-04T01:27:09.948Z,2.13
2024-02-04T01:29:42.821Z,2.15
2024-02-04T01:32:17.869Z,1.75
2024-02-04T01:34:48.071Z,1.73
2024-02-04T01:37:16.319Z,2.35
2024-02-04T01:39:44.366Z,1.95
2024-02-04T01:42:16.047Z,1.90
2024-02-04T01:44:44.742Z,1.85
2024-02-04T01:47:16.121Z,2.90
2024-02-04T01:49:45.676Z,2.13
2024-02-04T01:52:14.322Z,2.55
2024-02-04T01:54:46.353Z,2.08
2024-02-04T01:57:16.378Z,1.88
2024-02-04T01:59:46.905Z,1.60
2024-02-04T02:02:14.793Z,1.88
2024-02-04T02:04:42.746Z,1.83
2024-02-04T02:07:11.954Z,1.77
2024-02-04T02:09:42.827Z,1.77
2024-02-04T02:12:25.622Z,2.40
2024-02-04T02:15:14.986Z,2.83
2024-02-04T02:17:54.077Z,1.77
2024-02-04T02:21:32.238Z,1.83
2024-02-04T02:24:19.589Z,2.03
2024-02-04T02:26:51.408Z,1.98
2024-02-04T02:29:21.298Z,2.35
2024-02-04T02:31:57.979Z,1.80
2024-02-04T02:34:34.889Z,2.10
2024-02-04T02:37:28.137Z,1.98
2024-02-04T02:40:36.379Z,2.45
2024-02-04T02:43:11.500Z,1.85
2024-02-04T02:45:46.089Z,1.75
2024-02-04T02:48:19.279Z,2.47
2024-02-04T02:53:33.063Z,1.70
2024-02-04T02:56:00.812Z,2.80
2024-02-04T02:58:27.896Z,1.70
2024-02-04T03:00:56.036Z,1.40
2024-02-04T03:03:23.891Z,2.42
2024-02-04T03:05:51.582Z,1.95
2024-02-04T03:08:44.564Z,1.58
2024-02-04T03:11:31.888Z,2.25
2024-02-04T03:14:18.698Z,2.78
2024-02-04T03:16:46.936Z,1.40
2024-02-04T03:19:17.367Z,2.08
2024-02-04T03:21:49.682Z,1.77
2024-02-04T03:24:21.784Z,3.00
2024-02-04T03:26:54.949Z,1.90
2024-02-04T03:29:28.369Z,1.90
2024-02-04T03:31:57.719Z,2.05
2024-02-04T03:34:26.964Z,2.08
2024-02-04T03:36:55.056Z,1.58
2024-02-04T03:39:23.072Z,2.55
2024-02-04T03:41:50.942Z,2.47
2024-02-04T03:44:26.411Z,2.15
2024-02-04T03:46:57.763Z,2.33
2024-02-04T03:49:26.964Z,1.73
2024-02-04T03:51:59.641Z,2.05
2024-02-04T03:54:27.330Z,1.73
2024-02-04T03:56:54.894Z,2.30
2024-02-04T03:59:25.355Z,2.22
2024-02-04T04:01:55.259Z,2.17
2024-02-04T04:04:23.482Z,2.20
2024-02-04T04:06:50.933Z,2.08
2024-02-04T04:09:22.994Z,1.75
2024-02-04T04:11:55.886Z,1.85
2024-02-04T04:14:24.104Z,1.85
2024-02-04T04:16:51.738Z,1.90
2024-02-04T04:19:37.003Z,1.90
2024-02-04T04:22:10.063Z,1.80
2024-02-04T04:24:39.952Z,1.70
2024-02-04T04:27:07.526Z,1.70
2024-02-04T04:29:34.871Z,1.52
2024-02-04T04:32:03.000Z,2.38
2024-02-04T04:34:36.242Z,1.48
2024-02-04T04:37:03.763Z,1.98
2024-02-04T04:39:32.208Z,2.10
2024-02-04T04:42:02.346Z,1.95
2024-02-04T04:44:33.502Z,1.70
2024-02-04T04:47:03.560Z,2.10
2024-02-04T04:49:32.059Z,1.73
2024-02-04T04:52:03.642Z,1.77
2024-02-04T04:54:33.800Z,1.70
2024-02-04T04:57:07.138Z,1.80
2024-02-04T04:59:36.141Z,1.92
2024-02-04T05:02:03.527Z,1.90
2024-02-04T05:04:41.929Z,1.83
2024-02-04T05:07:10.305Z,2.17
2024-02-04T05:09:38.137Z,2.10
2024-02-04T05:12:06.353Z,1.42
2024-02-04T05:14:34.303Z,1.83
2024-02-04T05:17:01.830Z,2.30
2024-02-04T05:19:32.162Z,1.83
2024-02-04T05:22:05.221Z,1.90
2024-02-04T05:24:32.977Z,2.20
2024-02-04T05:27:18.451Z,1.85
2024-02-04T05:29:51.300Z,1.50
2024-02-04T05:32:21.904Z,2.22
2024-02-04T05:34:59.219Z,2.38
2024-02-04T05:37:27.106Z,1.60
2024-02-04T05:39:57.131Z,1.50
2024-02-04T05:42:27.499Z,1.08
2024-02-04T05:44:54.768Z,1.48
2024-02-04T05:47:22.778Z,1.80
2024-02-04T05:49:50.960Z,1.95
2024-02-04T05:52:18.502Z,1.33
2024-02-04T05:54:49.405Z,1.35
2024-02-04T05:57:24.080Z,1.67
2024-02-04T05:59:56.404Z,1.95
2024-02-04T06:02:27.773Z,1.40
2024-02-04T06:04:56.003Z,2.03
2024-02-04T06:07:27.325Z,1.83
2024-02-04T06:09:57.754Z,2.25
2024-02-04T06:12:25.473Z,1.60
2024-02-04T06:14:56.187Z,2.13
2024-02-04T06:17:34.143Z,2.63
2024-02-04T06:20:05.545Z,2.28
2024-02-04T06:22:34.908Z,2.17
2024-02-04T06:25:02.561Z,1.98
2024-02-04T06:27:33.173Z,2.38
2024-02-04T06:30:11.589Z,1.35
2024-02-04T06:32:42.141Z,1.90
2024-02-04T06:35:15.338Z,1.90
2024-02-04T06:37:44.028Z,3.30
2024-02-04T06:40:20.797Z,3.38
2024-02-04T06:42:48.963Z,2.13
2024-02-04T06:45:16.400Z,1.63
2024-02-04T06:47:52.212Z,2.70
2024-02-04T06:50:19.931Z,1.90
2024-02-04T06:52:47.856Z,2.72
2024-02-04T06:55:15.437Z,4.07
2024-02-04T06:57:43.597Z,2.53
2024-02-04T07:00:14.225Z,2.30
2024-02-04T07:02:50.667Z,3.50
2024-02-04T07:05:18.678Z,2.22
2024-02-04T07:07:47.369Z,2.22
2024-02-04T07:10:16.063Z,3.45
2024-02-04T07:12:46.389Z,2.33
2024-02-04T07:15:13.963Z,1.90
2024-02-04T07:17:41.691Z,2.40
2024-02-04T07:20:15.935Z,2.15
2024-02-04T07:22:44.810Z,1.73
2024-02-04T07:25:12.579Z,1.67
2024-02-04T07:27:40.002Z,1.92
2024-02-04T07:30:16.153Z,1.92
2024-02-04T07:35:21.095Z,1.52
2024-02-04T07:37:51.301Z,2.72
2024-02-04T07:40:21.125Z,1.58
2024-02-04T07:42:51.324Z,1.45
2024-02-04T07:45:21.941Z,1.45
2024-02-04T07:47:49.793Z,1.75
2024-02-04T07:50:17.455Z,1.60
2024-02-04T07:52:45.607Z,1.35
2024-02-04T07:55:16.579Z,1.73
2024-02-04T07:57:45.191Z,2.33
2024-02-04T08:00:13.321Z,2.20
2024-02-04T08:02:41.607Z,3.15
2024-02-04T08:05:09.419Z,2.70
2024-02-04T08:07:43.394Z,4.55
2024-02-04T08:10:13.936Z,2.25
2024-02-04T08:12:41.834Z,2.95
2024-02-04T08:15:12.800Z,2.40
2024-02-04T08:17:49.023Z,2.40
2024-02-04T08:20:17.656Z,3.80
2024-02-04T08:22:47.425Z,4.28
2024-02-04T08:25:22.198Z,2.85
2024-02-04T08:27:52.177Z,3.20
2024-02-04T08:30:20.540Z,3.45
2024-02-04T08:32:53.488Z,1.60
2024-02-04T08:35:20.770Z,2.53
2024-02-04T08:37:51.016Z,1.88
2024-02-04T08:40:29.350Z,2.22
2024-02-04T08:42:56.715Z,2.17
2024-02-04T08:45:24.849Z,1.88
2024-02-04T08:47:55.523Z,2.30
2024-02-04T08:50:26.377Z,2.92
2024-02-04T08:52:53.912Z,1.73
2024-02-04T08:58:32.508Z,1.73
2024-02-04T09:01:00.034Z,1.70
2024-02-04T09:03:31.163Z,2.13
2024-02-04T09:06:02.428Z,3.35
2024-02-04T09:08:29.710Z,2.10
2024-02-04T09:11:00.080Z,2.08
2024-02-04T09:13:27.576Z,2.88
2024-02-04T09:15:55.819Z,3.33
2024-02-04T09:18:26.604Z,1.92
2024-02-04T09:20:57.149Z,1.85
2024-02-04T09:23:27.273Z,2.20
2024-02-04T09:25:57.701Z,1.48
2024-02-04T09:28:30.462Z,4.15
2024-02-04T09:31:05.050Z,2.63
2024-02-04T09:33:33.273Z,3.05
2024-02-04T09:36:05.605Z,4.80
2024-02-04T09:38:59.643Z,3.15
2024-02-04T09:41:33.439Z,5.30
2024-02-04T09:44:06.405Z,3.08
2024-02-04T09:46:34.568Z,3.67
2024-02-04T09:49:04.189Z,3.92
2024-02-04T09:51:32.132Z,3.67
2024-02-04T09:54:16.633Z,3.25
2024-02-04T09:56:46.618Z,3.22
2024-02-04T09:59:18.879Z,1.90
2024-02-04T10:01:51.217Z,2.30
2024-02-04T10:04:32.853Z,2.00
2024-02-04T10:07:04.773Z,3.33
2024-02-04T10:09:38.854Z,3.40
2024-02-04T10:12:12.336Z,3.05
2024-02-04T10:14:48.332Z,1.33
2024-02-04T10:17:17.534Z,1.48
2024-02-04T10:19:44.873Z,2.22
2024-02-04T10:22:13.144Z,1.88
2024-02-04T10:24:49.253Z,2.13
2024-02-04T10:27:26.611Z,3.13
2024-02-04T10:30:01.880Z,2.35
2024-02-04T10:32:35.515Z,1.40
2024-02-04T10:35:06.334Z,2.55
2024-02-04T10:37:33.675Z,2.60
2024-02-04T10:40:13.809Z,2.85
2024-02-04T10:42:46.374Z,2.13
2024-02-04T10:45:17.142Z,2.08
2024-02-04T10:47:52.515Z,2.00
2024-02-04T10:50:21.281Z,1.52
2024-02-04T10:52:51.115Z,2.60
2024-02-04T10:55:29.237Z,1.90
2024-02-04T10:58:00.511Z,1.50
2024-02-04T11:00:29.981Z,2.17
2024-02-04T11:02:58.798Z,1.70
2024-02-04T11:05:28.131Z,3.45
2024-02-04T11:08:07.050Z,2.60
2024-02-04T11:10:40.617Z,1.80
2024-02-04T11:13:18.040Z,1.08
2024-02-04T11:15:47.170Z,1.17
2024-02-04T11:18:34.882Z,1.63
2024-02-04T11:21:17.390Z,1.58
2024-02-04T11:24:11.617Z,2.50
2024-02-04T11:26:52.159Z,1.80
2024-02-04T11:29:20.942Z,2.05
2024-02-04T11:31:51.440Z,1.85
2024-02-04T11:34:20.130Z,1.95
2024-02-04T11:36:47.666Z,2.42
2024-02-04T11:39:26.975Z,1.52
2024-02-04T11:41:57.572Z,1.88
2024-02-04T11:44:28.439Z,1.73
2024-02-04T11:46:57.147Z,1.95
2024-02-04T11:49:28.049Z,1.63
2024-02-04T11:51:57.723Z,2.80
2024-02-04T11:54:27.349Z,2.25
2024-02-04T11:56:56.938Z,1.10
2024-02-04T11:59:27.811Z,1.90
2024-02-04T12:01:59.575Z,1.90
2024-02-04T12:04:32.751Z,2.22
2024-02-04T12:07:00.416Z,1.75
2024-02-04T12:09:40.239Z,1.60
2024-02-04T12:12:10.132Z,1.40
2024-02-04T12:14:40.693Z,1.65
2024-02-04T12:17:12.480Z,1.20
2024-02-04T12:19:44.357Z,1.17
2024-02-04T12:22:12.982Z,2.05
2024-02-04T12:24:40.753Z,1.08
2024-02-04T12:27:08.835Z,1.08
2024-02-04T12:29:39.492Z,2.17
2024-02-04T12:32:10.012Z,1.83
2024-02-04T12:34:58.016Z,1.67
2024-02-04T12:37:32.817Z,1.95
2024-02-04T12:40:01.075Z,1.40
2024-02-04T12:42:45.008Z,1.38
2024-02-04T12:45:15.878Z,1.20
2024-02-04T12:47:43.641Z,0.90
2024-02-04T12:50:13.815Z,1.55
2024-02-04T12:52:45.964Z,1.13
2024-02-04T12:55:35.092Z,1.33
2024-02-04T12:58:10.792Z,1.98
2024-02-04T13:00:39.752Z,2.22
2024-02-04T13:03:11.713Z,1.42
2024-02-04T13:05:39.768Z,2.28
2024-02-04T13:08:09.510Z,2.30
2024-02-04T13:10:41.200Z,2.38
2024-02-04T13:13:17.371Z,2.80
2024-02-04T13:15:47.768Z,1.80
2024-02-04T13:18:25.206Z,1.95
2024-02-04T13:20:55.552Z,2.20
2024-02-04T13:23:26.446Z,1.92
2024-02-04T13:25:54.155Z,1.90
2024-02-04T13:28:22.266Z,2.08
2024-02-04T13:30:49.613Z,2.00
2024-02-04T13:33:22.063Z,1.42
2024-02-04T13:35:55.840Z,1.70
2024-02-04T13:38:23.088Z,1.90
2024-02-04T13:40:50.494Z,1.48
2024-02-04T13:43:20.497Z,1.50
2024-02-04T13:45:48.054Z,2.05
2024-02-04T13:48:20.257Z,1.55
2024-02-04T13:50:48.066Z,1.55
2024-02-04T13:53:22.880Z,1.90
2024-02-04T13:55:59.862Z,1.88
2024-02-04T13:58:27.845Z,3.03
2024-02-04T14:00:56.164Z,2.33
2024-02-04T14:03:26.378Z,2.55
2024-02-04T14:05:56.505Z,5.45
2024-02-04T14:08:31.434Z,2.72
2024-02-04T14:10:59.879Z,2.22
2024-02-04T14:13:29.962Z,2.20
2024-02-04T14:15:58.343Z,3.10
2024-02-04T14:18:26.664Z,2.35
2024-02-04T14:20:58.984Z,2.03
2024-02-04T14:23:26.960Z,1.85
2024-02-04T14:25:57.187Z,1.95
2024-02-04T14:28:30.325Z,2.25
2024-02-04T14:31:03.495Z,2.55
2024-02-04T14:33:31.323Z,1.80
2024-02-04T14:36:01.704Z,2.20
2024-02-04T14:38:40.547Z,1.90
2024-02-04T14:41:08.581Z,2.38
2024-02-04T14:43:40.129Z,2.60
2024-02-04T14:46:08.115Z,2.42
2024-02-04T14:48:42.870Z,3.05
2024-02-04T14:51:12.714Z,2.00
2024-02-04T14:53:42.009Z,3.17
2024-02-04T14:56:12.159Z,2.28
2024-02-04T14:58:39.922Z,3.10
2024-02-04T15:01:07.693Z,2.85
2024-02-04T15:03:38.240Z,2.70
2024-02-04T15:06:09.275Z,3.65
2024-02-04T15:08:38.303Z,3.33
2024-02-04T15:11:05.824Z,2.65
2024-02-04T15:13:34.491Z,3.22
2024-02-04T15:16:06.252Z,2.88
2024-02-04T15:18:33.638Z,3.00
2024-02-04T15:21:09.653Z,4.05
2024-02-04T15:23:40.939Z,2.83
2024-02-04T15:26:11.203Z,3.13
2024-02-04T15:28:39.913Z,4.00
2024-02-04T15:31:11.149Z,2.75
2024-02-04T15:33:44.885Z,3.50
2024-02-04T15:36:12.638Z,2.85
2024-02-04T15:38:40.670Z,3.00
2024-02-04T15:41:08.850Z,3.47
2024-02-04T15:43:39.800Z,3.05
2024-02-04T15:46:13.338Z,3.63
2024-02-04T15:48:44.663Z,4.22
2024-02-04T15:51:19.302Z,3.40
2024-02-04T15:53:47.554Z,3.45
2024-02-04T15:56:20.988Z,4.00
2024-02-04T15:58:51.774Z,3.58
2024-02-04T16:01:26.022Z,3.03
2024-02-04T16:03:56.243Z,3.63
2024-02-04T16:06:26.341Z,3.35
2024-02-04T16:08:56.248Z,7.07
2024-02-04T16:11:32.227Z,3.95
2024-02-04T16:14:04.095Z,3.05
2024-02-04T16:16:40.091Z,2.65
2024-02-04T16:19:09.222Z,5.93
2024-02-04T16:24:07.791Z,3.55
2024-02-04T16:26:35.975Z,2.85
2024-02-04T16:29:05.717Z,3.40
2024-02-04T16:31:33.184Z,3.20
2024-02-04T16:34:00.939Z,3.92
2024-02-04T16:36:32.489Z,2.90
2024-02-04T16:39:00.074Z,3.60
2024-02-04T16:41:27.696Z,3.85
2024-02-04T16:43:55.587Z,3.22
2024-02-04T16:46:25.751Z,2.72
2024-02-04T16:48:53.423Z,4.93
2024-02-04T16:51:29.351Z,4.45
2024-02-04T16:53:58.702Z,4.82
2024-02-04T16:56:26.604Z,4.88
2024-02-04T16:58:53.990Z,4.47
2024-02-04T17:01:21.314Z,4.53
2024-02-04T17:03:53.715Z,4.43
2024-02-04T17:06:21.737Z,3.58
2024-02-04T17:08:50.095Z,4.43
2024-02-04T17:11:21.935Z,3.20
2024-02-04T17:16:34.960Z,3.58
2024-02-04T17:19:31.834Z,4.20
2024-02-04T17:22:06.378Z,2.95
2024-02-04T17:24:41.856Z,3.75
2024-02-04T17:27:16.474Z,3.85
2024-02-04T17:29:48.372Z,3.42
2024-02-04T17:32:20.533Z,3.63
2024-02-04T17:34:49.003Z,3.15
2024-02-04T17:37:16.999Z,3.83
2024-02-04T17:39:45.037Z,4.55
2024-02-04T17:42:13.333Z,4.55
2024-02-04T17:44:43.513Z,4.05
2024-02-04T17:47:14.775Z,4.28
2024-02-04T17:49:44.357Z,4.60
2024-02-04T17:52:15.043Z,4.60
2024-02-04T17:54:42.797Z,5.20
2024-02-04T17:57:12.751Z,4.22
2024-02-04T17:59:42.932Z,5.85
2024-02-04T18:02:10.437Z,4.95
2024-02-04T18:04:38.896Z,4.20
2024-02-04T18:07:10.037Z,4.18
2024-02-04T18:09:40.421Z,4.50
2024-02-04T18:12:08.283Z,7.00
2024-02-04T18:14:40.342Z,5.72
2024-02-04T18:17:14.334Z,6.90
2024-02-04T18:19:45.387Z,3.70
2024-02-04T18:22:12.897Z,3.22
2024-02-04T18:24:40.985Z,3.15
2024-02-04T18:27:08.336Z,3.65
2024-02-04T18:29:37.787Z,3.28
2024-02-04T18:32:06.019Z,3.13
2024-02-04T18:34:39.364Z,3.45
2024-02-04T18:37:16.225Z,4.53
2024-02-04T18:39:43.519Z,5.07
2024-02-04T18:44:48.197Z,4.78
2024-02-04T18:47:15.761Z,4.53
2024-02-04T18:49:44.454Z,4.45
2024-02-04T18:52:17.394Z,4.32
2024-02-04T18:54:44.916Z,4.13
2024-02-04T18:57:15.823Z,4.20
2024-02-04T18:59:47.260Z,4.43
2024-02-04T19:02:15.448Z,4.30
2024-02-04T19:04:42.739Z,3.83
2024-02-04T19:07:10.324Z,3.90
2024-02-04T19:09:39.558Z,3.88
2024-02-04T19:12:17.293Z,4.20
2024-02-04T19:14:45.811Z,4.45
2024-02-04T19:17:15.706Z,4.82
2024-02-04T19:19:49.904Z,4.13
2024-02-04T19:22:39.040Z,3.70
2024-02-04T19:25:08.698Z,3.92
2024-02-04T19:27:45.992Z,4.25
2024-02-04T19:30:16.478Z,3.53
2024-02-04T19:32:50.478Z,4.25
2024-02-04T19:35:22.635Z,4.25
2024-02-04T19:37:55.097Z,3.95
2024-02-04T19:40:27.423Z,4.45
2024-02-04T19:42:55.183Z,2.60
2024-02-04T19:45:26.654Z,3.75
2024-02-04T19:47:54.818Z,2.65
2024-02-04T19:50:23.105Z,4.15
2024-02-04T19:52:50.767Z,7.93
2024-02-04T19:55:23.687Z,4.93
2024-02-04T19:57:51.347Z,3.45
2024-02-04T20:00:19.782Z,3.33
2024-02-04T20:02:49.259Z,4.07
2024-02-04T20:05:19.182Z,4.40
2024-02-04T20:07:49.323Z,3.95
2024-02-04T20:10:17.569Z,4.63
2024-02-04T20:12:49.675Z,5.68
2024-02-04T20:15:28.986Z,4.55
2024-02-04T20:18:00.681Z,3.45
2024-02-04T20:23:00.372Z,4.05
2024-02-04T20:25:34.024Z,4.35
2024-02-04T20:28:01.890Z,4.47
2024-02-04T20:30:34.357Z,4.38
2024-02-04T20:33:14.455Z,5.28
2024-02-04T20:35:48.547Z,5.20
2024-02-04T20:38:16.519Z,6.10
2024-02-04T20:40:44.271Z,5.65
2024-02-04T20:43:13.709Z,5.38
2024-02-04T20:45:45.464Z,4.78
2024-02-04T20:48:16.191Z,4.47
2024-02-04T20:50:45.810Z,3.60
2024-02-04T20:53:16.249Z,3.65
2024-02-04T20:55:43.862Z,4.78
2024-02-04T20:58:11.985Z,3.88
2024-02-04T21:00:43.935Z,4.57
2024-02-04T21:03:17.326Z,3.20
2024-02-04T21:05:49.884Z,3.75
2024-02-04T21:08:34.283Z,3.65
2024-02-04T21:11:02.070Z,3.45
2024-02-04T21:13:31.244Z,3.85
2024-02-04T21:15:59.082Z,3.90
2024-02-04T21:18:32.690Z,3.20
2024-02-04T21:21:05.254Z,2.88
2024-02-04T21:23:32.783Z,2.75
2024-02-04T21:26:00.102Z,2.85
2024-02-04T21:28:42.986Z,3.17
2024-02-04T21:31:16.286Z,1.80
2024-02-04T21:33:45.297Z,1.98
2024-02-04T21:36:12.924Z,1.90
2024-02-04T21:38:45.939Z,2.17
2024-02-04T21:41:22.596Z,1.80
2024-02-04T21:43:53.870Z,1.80
2024-02-04T21:46:22.512Z,2.30
2024-02-04T21:48:57.032Z,1.70
2024-02-04T21:51:30.926Z,1.42
2024-02-04T21:54:00.911Z,1.50
2024-02-04T21:56:31.893Z,2.90
2024-02-04T21:58:59.393Z,1.92
2024-02-04T22:01:32.828Z,1.23
2024-02-04T22:04:01.123Z,1.25
2024-02-04T22:06:33.582Z,1.50
2024-02-04T22:09:02.230Z,1.00
2024-02-04T22:11:31.311Z,1.48
2024-02-04T22:13:59.311Z,1.15
2024-02-04T22:16:30.109Z,1.08
2024-02-04T22:18:57.382Z,1.05
2024-02-04T22:21:32.743Z,1.10
2024-02-04T22:24:03.030Z,1.08
2024-02-04T22:26:31.073Z,0.60
2024-02-04T22:28:58.473Z,1.42
2024-02-04T22:31:34.602Z,1.52
2024-02-04T22:34:05.100Z,0.90
2024-02-04T22:36:34.458Z,0.68
2024-02-04T22:39:11.233Z,1.15
2024-02-04T22:41:42.845Z,1.00
2024-02-04T22:44:18.756Z,1.02
2024-02-04T22:46:46.314Z,1.20
2024-02-04T22:49:16.905Z,1.17
2024-02-04T22:51:44.836Z,1.38
2024-02-04T22:54:36.022Z,1.40
2024-02-04T22:57:13.474Z,1.08
2024-02-04T22:59:46.973Z,1.20
2024-02-04T23:02:14.853Z,0.60
2024-02-04T23:04:42.382Z,1.48
2024-02-04T23:07:16.185Z,1.77
2024-02-04T23:09:55.590Z,1.45
2024-02-04T23:12:23.266Z,0.75
2024-02-04T23:14:53.668Z,1.30
2024-02-04T23:17:24.509Z,1.02
2024-02-04T23:19:54.878Z,1.17
2024-02-04T23:22:22.499Z,1.42
2024-02-04T23:24:54.104Z,1.13
2024-02-04T23:27:28.358Z,1.08
2024-02-04T23:29:59.292Z,1.10
2024-02-04T23:32:32.181Z,0.70
2024-02-04T23:35:06.119Z,1.42
2024-02-04T23:37:35.300Z,0.90
2024-02-04T23:40:08.095Z,0.90
2024-02-04T23:42:36.297Z,0.80
2024-02-04T23:45:05.758Z,0.90
2024-02-04T23:47:35.105Z,1.20
2024-02-04T23:50:12.857Z,1.38
2024-02-04T23:52:47.287Z,1.20
2024-02-04T23:55:16.467Z,1.85
2024-02-04T23:57:47.904Z,1.85
